Time;durP1;ratioP1;P1;durP2;ratioP2;P2;SDS_P1;SDS_P2;PMS_P1;PMS_P2;Temp;Humidity;BMP_temperature;BMP_pressure;BME280_temperature;BME280_humidity;BME280_pressure;Samples;Min_cycle;Max_cycle;Signal;HPM_P1;HPM_P2
2023/01/05 00:01:41;;;;;;;18.85;2.78;;;11.30;99.90;;;;;;5015977;28;94826;-84
2023/01/05 00:04:08;;;;;;;14.32;3.13;;;11.30;99.90;;;;;;4998899;28;92511;-84
2023/01/05 00:06:36;;;;;;;17.40;3.58;;;11.30;99.90;;;;;;5015254;28;95830;-84
2023/01/05 00:09:04;;;;;;;11.38;2.75;;;11.30;99.90;;;;;;4998219;28;95556;-84
2023/01/05 00:22:43;;;;;;;14.75;2.72;;;11.20;99.90;;;;;;5018670;28;92538;-84
2023/01/05 00:25:22;;;;;;;15.40;2.55;;;11.20;99.90;;;;;;5036417;28;92348;-84
2023/01/05 00:27:50;;;;;;;10.02;2.60;;;11.20;99.90;;;;;;5017188;28;96781;-84
2023/01/05 00:30:21;;;;;;;13.38;2.85;;;11.20;99.90;;;;;;5001901;28;95814;-84
2023/01/05 00:32:48;;;;;;;13.00;2.92;;;11.20;99.90;;;;;;5018561;28;92506;-84
2023/01/05 00:35:15;;;;;;;14.82;2.88;;;11.20;99.90;;;;;;5018117;28;92490;-84
2023/01/05 00:37:44;;;;;;;14.70;3.22;;;11.20;99.90;;;;;;5001585;28;95939;-84
2023/01/05 00:40:14;;;;;;;15.02;3.60;;;11.10;99.90;;;;;;5017889;28;95442;-84
2023/01/05 00:42:41;;;;;;;13.63;2.85;;;11.20;99.90;;;;;;5036466;28;92396;-84
2023/01/05 00:45:11;;;;;;;16.90;3.58;;;11.20;99.90;;;;;;5018433;28;92482;-84
2023/01/05 00:47:38;;;;;;;13.43;3.72;;;11.20;99.90;;;;;;5001625;28;95466;-84
2023/01/05 00:50:07;;;;;;;16.27;3.25;;;11.20;99.90;;;;;;5036072;28;93056;-85
2023/01/05 00:52:34;;;;;;;14.98;2.90;;;11.20;99.90;;;;;;5016838;28;94873;-83
2023/01/05 00:55:01;;;;;;;16.13;3.47;;;11.20;99.90;;;;;;5018127;28;92422;-84
2023/01/05 00:57:28;;;;;;;17.58;4.90;;;11.20;99.90;;;;;;5001530;28;93554;-83
2023/01/05 00:59:55;;;;;;;14.52;3.33;;;11.20;99.90;;;;;;5001337;28;95631;-83
2023/01/05 01:02:22;;;;;;;14.50;3.15;;;11.20;99.90;;;;;;5036151;28;92452;-83
2023/01/05 01:04:49;;;;;;;14.23;3.58;;;11.20;99.90;;;;;;5000610;28;92470;-84
2023/01/05 01:07:16;;;;;;;21.23;3.35;;;11.10;99.90;;;;;;5035702;28;93293;-83
2023/01/05 01:09:43;;;;;;;17.88;4.55;;;11.20;99.90;;;;;;5018347;28;93188;-84
2023/01/05 01:12:10;;;;;;;15.07;3.42;;;11.20;99.90;;;;;;5017406;28;92586;-83
2023/01/05 01:14:38;;;;;;;16.02;3.47;;;11.20;99.90;;;;;;5017970;28;92484;-84
2023/01/05 01:17:05;;;;;;;15.68;3.53;;;11.20;99.90;;;;;;5015618;28;98180;-83
2023/01/05 01:19:32;;;;;;;13.23;3.55;;;11.20;99.90;;;;;;5017296;28;98439;-83
2023/01/05 01:22:00;;;;;;;15.80;3.70;;;11.20;99.90;;;;;;5017695;28;92495;-83
2023/01/05 01:24:28;;;;;;;17.92;3.80;;;11.20;99.90;;;;;;5017891;28;92603;-83
2023/01/05 01:26:55;;;;;;;17.08;3.92;;;11.30;99.90;;;;;;5000795;28;95820;-83
2023/01/05 01:29:23;;;;;;;17.65;3.03;;;11.30;99.90;;;;;;5017350;28;95973;-83
2023/01/05 01:31:52;;;;;;;17.52;3.78;;;11.30;99.90;;;;;;5001360;28;92546;-83
2023/01/05 01:34:19;;;;;;;21.10;4.03;;;11.30;99.90;;;;;;5018168;28;92148;-83
2023/01/05 01:36:47;;;;;;;16.77;3.15;;;11.30;99.90;;;;;;5001345;28;93465;-83
2023/01/05 01:39:17;;;;;;;17.85;3.55;;;11.30;99.90;;;;;;5017537;28;95594;-83
2023/01/05 01:41:48;;;;;;;17.50;3.80;;;11.30;99.90;;;;;;5000531;28;94889;-84
2023/01/05 01:44:53;;;;;;;16.23;3.10;;;11.40;99.90;;;;;;5000822;28;92638;-83
2023/01/05 01:47:35;;;;;;;13.57;3.65;;;11.40;99.90;;;;;;5016767;28;95819;-83
2023/01/05 01:50:26;;;;;;;13.70;2.80;;;11.40;99.90;;;;;;5035387;28;92390;-83
2023/01/05 01:52:59;;;;;;;13.95;3.22;;;11.40;99.90;;;;;;5017262;28;92460;-83
2023/01/05 01:55:28;;;;;;;16.90;2.77;;;11.40;99.90;;;;;;5017210;28;92601;-83
2023/01/05 01:57:56;;;;;;;15.07;3.63;;;11.40;99.90;;;;;;5000156;28;96051;-83
2023/01/05 02:00:26;;;;;;;18.23;3.67;;;11.40;99.90;;;;;;5017087;28;95771;-83
2023/01/05 02:02:55;;;;;;;14.20;3.40;;;11.40;99.90;;;;;;5017255;28;92544;-84
2023/01/05 02:05:28;;;;;;;15.60;3.13;;;11.50;99.90;;;;;;5017120;28;92738;-84
2023/01/05 02:07:55;;;;;;;14.50;3.53;;;11.50;99.90;;;;;;5015676;28;98407;-83
2023/01/05 02:10:47;;;;;;;16.25;3.38;;;11.50;99.90;;;;;;5016415;28;98613;-85
2023/01/05 02:14:01;;;;;;;19.90;3.30;;;11.40;99.90;;;;;;5016981;28;92702;-84
2023/01/05 02:16:40;;;;;;;17.38;3.38;;;11.40;99.90;;;;;;5001693;28;92601;-84
2023/01/05 02:19:34;;;;;;;19.80;3.63;;;11.40;99.90;;;;;;4999705;28;95795;-84
2023/01/05 02:22:16;;;;;;;17.85;3.72;;;11.50;99.90;;;;;;5018513;28;93408;-84
2023/01/05 02:25:30;;;;;;;14.05;3.30;;;11.40;99.90;;;;;;5016996;28;92383;-84
2023/01/05 02:28:29;;;;;;;11.73;3.03;;;11.50;99.90;;;;;;5017319;28;91792;-84
2023/01/05 02:31:21;;;;;;;17.45;3.17;;;11.50;99.90;;;;;;5016745;28;95998;-84
2023/01/05 02:34:02;;;;;;;20.50;3.55;;;11.40;99.90;;;;;;5017987;28;93378;-84
2023/01/05 02:36:49;;;;;;;14.38;3.42;;;11.40;99.90;;;;;;5015617;28;94936;-84
2023/01/05 02:39:27;;;;;;;19.90;3.50;;;11.50;99.90;;;;;;5016676;28;92577;-84
2023/01/05 02:42:00;;;;;;;20.20;4.20;;;11.50;99.90;;;;;;5016954;28;95641;-84
2023/01/05 02:44:30;;;;;;;16.33;3.88;;;11.50;99.90;;;;;;4999635;28;95895;-84
2023/01/05 02:47:21;;;;;;;14.10;3.25;;;11.50;99.90;;;;;;5016895;28;92910;-84
2023/01/05 02:49:48;;;;;;;20.02;3.38;;;11.50;99.90;;;;;;4999473;28;92429;-84
2023/01/05 02:52:16;;;;;;;18.17;3.00;;;11.50;99.90;;;;;;5000032;28;95913;-84
2023/01/05 02:54:58;;;;;;;17.60;3.92;;;11.50;99.90;;;;;;5000265;28;95726;-84
2023/01/05 02:57:49;;;;;;;15.38;3.60;;;11.50;99.90;;;;;;5016678;28;92551;-84
2023/01/05 03:00:27;;;;;;;16.85;3.40;;;11.50;99.90;;;;;;5016318;28;92433;-84
2023/01/05 03:03:07;;;;;;;11.45;3.15;;;11.40;99.90;;;;;;4998679;28;97472;-84
2023/01/05 03:05:46;;;;;;;17.52;3.15;;;11.50;99.90;;;;;;5015952;28;97930;-84
2023/01/05 03:08:21;;;;;;;20.13;3.75;;;11.50;99.90;;;;;;5016206;28;92689;-84
2023/01/05 03:14:15;;;;;;;15.48;4.03;;;11.40;99.90;;;;;;5016337;28;95543;-84
2023/01/05 03:16:45;;;;;;;20.33;3.45;;;11.40;99.90;;;;;;4998291;28;95968;-84
2023/01/05 03:19:38;;;;;;;13.82;3.50;;;11.40;99.90;;;;;;5015865;28;92557;-84
2023/01/05 03:36:51;;;;;;;16.90;3.60;;;11.30;99.90;;;;;;5015549;28;96004;-83
2023/01/05 03:39:19;;;;;;;19.23;4.30;;;11.30;99.90;;;;;;5015977;28;93043;-84
2023/01/05 03:41:47;;;;;;;16.45;3.25;;;11.30;99.90;;;;;;5015875;28;92460;-83
2023/01/05 03:44:14;;;;;;;21.52;3.30;;;11.30;99.90;;;;;;5015760;28;92926;-83
2023/01/05 03:46:42;;;;;;;25.88;4.05;;;11.30;99.90;;;;;;4998818;28;95864;-83
2023/01/05 03:49:10;;;;;;;17.92;3.03;;;11.30;99.90;;;;;;4983118;28;95798;-83
2023/01/05 03:51:37;;;;;;;19.85;3.72;;;11.40;99.90;;;;;;5017224;28;92853;-83
2023/01/05 03:54:08;;;;;;;12.95;3.00;;;11.40;99.90;;;;;;5015763;28;92717;-83
2023/01/05 03:56:37;;;;;;;15.80;3.40;;;11.40;99.90;;;;;;5013925;28;98216;-84
2023/01/05 03:59:05;;;;;;;14.25;3.90;;;11.40;99.90;;;;;;4998947;28;97979;-83
2023/01/05 04:01:32;;;;;;;17.05;3.05;;;11.40;99.90;;;;;;5015083;28;92477;-83
2023/01/05 04:04:00;;;;;;;16.20;3.55;;;11.30;99.90;;;;;;5015772;28;92487;-83
2023/01/05 04:06:27;;;;;;;16.50;2.95;;;11.40;99.90;;;;;;5015105;28;95979;-83
2023/01/05 04:08:54;;;;;;;16.95;3.45;;;11.30;99.90;;;;;;5015183;28;94252;-83
2023/01/05 04:11:24;;;;;;;18.73;3.72;;;11.30;99.90;;;;;;5015667;28;93026;-83
2023/01/05 04:14:03;;;;;;;15.13;3.35;;;11.30;99.90;;;;;;5000777;28;91781;-83
2023/01/05 04:16:32;;;;;;;19.45;3.75;;;11.30;99.90;;;;;;5015086;28;95489;-83
2023/01/05 04:19:06;;;;;;;14.50;3.42;;;11.30;99.90;;;;;;4998860;28;95591;-83
2023/01/05 04:21:33;;;;;;;16.92;3.50;;;11.30;99.90;;;;;;5014326;28;94851;-83
2023/01/05 04:24:02;;;;;;;19.02;3.65;;;11.30;99.90;;;;;;4999203;28;92850;-83
2023/01/05 04:26:30;;;;;;;19.75;4.03;;;11.40;99.90;;;;;;5014899;28;95609;-83
2023/01/05 04:28:57;;;;;;;16.23;3.80;;;11.30;99.90;;;;;;5015366;28;92527;-83
2023/01/05 04:31:24;;;;;;;23.10;3.83;;;11.40;99.90;;;;;;5016962;28;92735;-83
2023/01/05 04:33:54;;;;;;;13.60;3.78;;;11.40;99.90;;;;;;4982771;28;92424;-83
2023/01/05 04:36:23;;;;;;;22.92;4.43;;;11.40;99.90;;;;;;4998582;28;96108;-83
2023/01/05 04:38:52;;;;;;;21.92;4.43;;;11.40;99.90;;;;;;5014778;28;93969;-84
2023/01/05 04:41:20;;;;;;;18.52;3.85;;;11.40;99.90;;;;;;5014245;28;92605;-83
2023/01/05 04:43:50;;;;;;;18.42;3.95;;;11.40;99.90;;;;;;5014801;28;92518;-84
2023/01/05 04:46:17;;;;;;;15.57;3.72;;;11.40;99.90;;;;;;5013289;28;97812;-84
2023/01/05 04:48:47;;;;;;;18.17;4.25;;;11.40;99.90;;;;;;5014485;28;97830;-83
2023/01/05 04:51:14;;;;;;;18.40;3.67;;;11.40;99.90;;;;;;4998662;28;92434;-84
2023/01/05 04:53:42;;;;;;;15.55;3.70;;;11.40;99.90;;;;;;5016096;28;92951;-84
2023/01/05 04:56:14;;;;;;;18.38;3.80;;;11.40;99.90;;;;;;5014819;28;95677;-84
2023/01/05 04:58:43;;;;;;;17.35;4.05;;;11.40;99.90;;;;;;5014286;28;92791;-83
2023/01/05 05:01:11;;;;;;;17.75;3.70;;;11.40;99.90;;;;;;5014602;28;92524;-83
2023/01/05 05:03:39;;;;;;;20.42;4.07;;;11.40;99.90;;;;;;4998588;28;92267;-83
2023/01/05 05:06:09;;;;;;;20.83;3.95;;;11.40;99.90;;;;;;5014260;28;95657;-83
2023/01/05 05:08:36;;;;;;;19.33;3.40;;;11.50;99.90;;;;;;4997539;28;96179;-83
2023/01/05 05:11:04;;;;;;;16.50;3.10;;;11.40;99.90;;;;;;4997000;28;94943;-83
2023/01/05 05:13:35;;;;;;;16.52;3.00;;;11.40;99.90;;;;;;5014552;28;92515;-83
2023/01/05 05:16:02;;;;;;;14.95;3.15;;;11.50;99.90;;;;;;4997843;28;95906;-83
2023/01/05 05:18:31;;;;;;;17.40;3.25;;;11.50;99.90;;;;;;4997475;28;94127;-83
2023/01/05 05:20:59;;;;;;;14.20;3.25;;;11.50;99.90;;;;;;5014173;28;92440;-83
2023/01/05 05:23:30;;;;;;;13.05;2.50;;;11.50;99.90;;;;;;5014468;28;92469;-83
2023/01/05 05:25:58;;;;;;;20.20;3.65;;;11.50;99.90;;;;;;5013838;28;95485;-83
2023/01/05 05:28:27;;;;;;;13.82;3.03;;;11.50;99.90;;;;;;4998080;28;95344;-83
2023/01/05 05:30:55;;;;;;;17.70;3.83;;;11.50;99.90;;;;;;5014018;28;92562;-83
2023/01/05 05:33:23;;;;;;;12.43;3.25;;;11.50;99.90;;;;;;5015719;28;92498;-83
2023/01/05 05:35:50;;;;;;;16.38;3.38;;;11.50;99.90;;;;;;5013858;28;95278;-83
2023/01/05 05:38:17;;;;;;;12.23;4.20;;;11.50;99.90;;;;;;5013992;28;95423;-83
2023/01/05 05:40:46;;;;;;;16.27;3.58;;;11.50;99.90;;;;;;5015436;28;92463;-83
2023/01/05 05:43:13;;;;;;;19.15;3.85;;;11.60;99.90;;;;;;5015562;28;92406;-84
2023/01/05 05:45:44;;;;;;;17.70;3.88;;;11.60;99.90;;;;;;5014004;28;93213;-83
2023/01/05 05:48:17;;;;;;;17.00;3.75;;;11.60;99.90;;;;;;5014398;28;93288;-83
2023/01/05 05:50:44;;;;;;;12.40;3.08;;;11.60;99.90;;;;;;5015490;28;92926;-83
2023/01/05 05:53:11;;;;;;;16.25;3.05;;;11.60;99.90;;;;;;5018340;28;91730;-83
2023/01/05 05:55:39;;;;;;;17.45;3.33;;;11.60;99.90;;;;;;5017314;28;95943;-83
2023/01/05 05:58:06;;;;;;;15.60;3.50;;;11.60;99.90;;;;;;5017339;28;92510;-83
2023/01/05 06:00:33;;;;;;;16.80;2.75;;;11.60;99.90;;;;;;5016344;28;94871;-84
2023/01/05 06:03:00;;;;;;;17.00;4.00;;;11.60;99.90;;;;;;5017244;28;92475;-83
2023/01/05 06:05:28;;;;;;;15.65;3.55;;;11.60;99.90;;;;;;5017084;28;93336;-84
2023/01/05 06:07:55;;;;;;;19.02;3.78;;;11.60;99.90;;;;;;5000515;28;93343;-84
2023/01/05 06:10:22;;;;;;;17.35;3.75;;;11.60;99.90;;;;;;5001001;28;92538;-84
2023/01/05 06:12:51;;;;;;;18.00;4.03;;;11.60;99.90;;;;;;5017194;28;92483;-84
2023/01/05 06:15:18;;;;;;;16.00;3.75;;;11.60;99.90;;;;;;5016938;28;95845;-84
2023/01/05 06:17:47;;;;;;;17.27;3.60;;;11.60;99.90;;;;;;5017412;28;93143;-85
2023/01/05 06:20:16;;;;;;;15.43;4.05;;;11.60;99.90;;;;;;5016790;28;92580;-83
2023/01/05 06:22:43;;;;;;;14.35;3.47;;;11.60;99.90;;;;;;5017191;28;92452;-83
2023/01/05 06:25:10;;;;;;;11.98;3.55;;;11.50;99.90;;;;;;5015433;28;99179;-83
2023/01/05 06:27:37;;;;;;;17.73;3.78;;;11.60;99.90;;;;;;5000307;28;98224;-83
2023/01/05 06:30:05;;;;;;;16.65;3.40;;;11.60;99.90;;;;;;4983698;28;92504;-84
2023/01/05 06:32:32;;;;;;;14.05;3.53;;;11.60;99.90;;;;;;5000144;28;92454;-83
2023/01/05 06:34:59;;;;;;;16.23;3.50;;;11.60;99.90;;;;;;5016928;28;93318;-83
2023/01/05 06:37:26;;;;;;;16.33;4.35;;;11.60;99.90;;;;;;5000095;28;95955;-84
2023/01/05 06:39:55;;;;;;;20.17;3.97;;;11.60;99.90;;;;;;5016842;28;92494;-83
2023/01/05 06:42:22;;;;;;;15.85;3.03;;;11.60;99.90;;;;;;5018394;28;91703;-83
2023/01/05 06:44:49;;;;;;;21.95;3.67;;;11.60;99.90;;;;;;5016481;28;93221;-83
2023/01/05 06:47:16;;;;;;;19.67;3.92;;;11.60;99.90;;;;;;5016485;28;93852;-83
2023/01/05 06:49:43;;;;;;;16.10;3.80;;;11.60;99.90;;;;;;5015941;28;95438;-83
2023/01/05 06:52:11;;;;;;;16.58;3.30;;;11.50;99.90;;;;;;5000152;28;92373;-83
2023/01/05 06:54:42;;;;;;;20.08;3.45;;;11.50;99.90;;;;;;5001123;28;93172;-84
2023/01/05 06:57:10;;;;;;;14.57;3.30;;;11.40;99.90;;;;;;5016513;28;93104;-84
2023/01/05 06:59:37;;;;;;;17.40;3.13;;;11.30;99.90;;;;;;5016343;28;92403;-83
2023/01/05 07:02:05;;;;;;;10.02;3.25;;;11.30;99.90;;;;;;5016306;28;92546;-83
2023/01/05 07:04:32;;;;;;;18.92;3.78;;;11.30;99.90;;;;;;5015701;28;93483;-83
2023/01/05 07:06:59;;;;;;;15.98;3.50;;;11.30;99.90;;;;;;4999775;28;96874;-84
2023/01/05 07:09:26;;;;;;;12.43;2.80;;;11.20;99.90;;;;;;5017837;28;92395;-83
2023/01/05 07:11:53;;;;;;;14.52;3.90;;;11.10;99.90;;;;;;5017676;28;92462;-83
2023/01/05 07:14:20;;;;;;;16.45;3.40;;;11.20;99.90;;;;;;4998481;28;98445;-83
2023/01/05 07:16:47;;;;;;;16.85;3.95;;;11.20;99.90;;;;;;5016039;28;98365;-83
2023/01/05 07:19:15;;;;;;;16.85;3.83;;;11.20;99.90;;;;;;5016169;28;92626;-84
2023/01/05 07:21:42;;;;;;;19.60;3.58;;;11.30;99.90;;;;;;4999516;28;93329;-83
2023/01/05 07:24:09;;;;;;;14.95;2.92;;;11.30;99.90;;;;;;5016163;28;93254;-84
2023/01/05 07:26:36;;;;;;;18.17;3.55;;;11.30;99.90;;;;;;5015604;28;95882;-83
2023/01/05 07:29:03;;;;;;;15.23;3.13;;;11.30;99.90;;;;;;5015672;28;92534;-84
2023/01/05 07:31:30;;;;;;;17.52;3.53;;;11.30;99.90;;;;;;5016307;28;91763;-84
2023/01/05 07:33:57;;;;;;;19.63;3.05;;;11.30;99.90;;;;;;5015791;28;93295;-85
2023/01/05 07:36:24;;;;;;;15.15;3.30;;;11.30;99.90;;;;;;4999146;28;95643;-85
2023/01/05 07:38:52;;;;;;;13.10;3.30;;;11.40;99.90;;;;;;4998465;28;94869;-85
2023/01/05 07:41:19;;;;;;;12.73;3.20;;;11.30;99.90;;;;;;5015656;28;93030;-85
2023/01/05 07:43:49;;;;;;;19.25;3.22;;;11.30;99.90;;;;;;5017018;28;93357;-85
2023/01/05 07:46:16;;;;;;;15.68;3.53;;;11.40;99.90;;;;;;4998901;28;95554;-85
2023/01/05 07:48:43;;;;;;;14.10;2.78;;;11.40;99.90;;;;;;5015982;28;92533;-83
2023/01/05 07:51:10;;;;;;;14.70;2.85;;;11.40;99.90;;;;;;4998537;28;100822;-84
2023/01/05 07:53:37;;;;;;;17.13;3.60;;;11.40;99.90;;;;;;5016912;28;93885;-84
2023/01/05 07:56:11;;;;;;;14.38;3.55;;;11.40;99.90;;;;;;5000231;28;91823;-84
2023/01/05 07:58:38;;;;;;;15.05;3.53;;;11.40;99.90;;;;;;5015624;28;92347;-83
2023/01/05 08:01:08;;;;;;;15.90;2.95;;;11.40;99.90;;;;;;4998919;28;92502;-84
2023/01/05 08:03:35;;;;;;;16.08;2.97;;;11.50;99.90;;;;;;5014327;28;98739;-84
2023/01/05 08:06:04;;;;;;;10.10;3.13;;;11.40;99.90;;;;;;5015384;28;95466;-83
2023/01/05 08:08:31;;;;;;;13.13;2.92;;;11.50;99.90;;;;;;5015260;28;92516;-84
2023/01/05 08:10:58;;;;;;;13.73;3.78;;;11.50;99.90;;;;;;5015500;28;93117;-84
2023/01/05 08:16:11;;;;;;;16.27;3.10;;;11.50;99.90;;;;;;5015153;28;95848;-84
2023/01/05 08:18:38;;;;;;;15.52;3.67;;;11.50;99.90;;;;;;5015079;28;92514;-84
2023/01/05 08:21:07;;;;;;;14.93;3.10;;;11.50;99.90;;;;;;4998828;28;91811;-84
2023/01/05 08:23:37;;;;;;;19.45;4.00;;;11.60;99.90;;;;;;5015457;28;93213;-84
2023/01/05 08:26:05;;;;;;;14.23;3.28;;;11.60;99.90;;;;;;5016813;28;93175;-84
2023/01/05 08:28:34;;;;;;;11.52;2.72;;;11.60;99.90;;;;;;5014275;28;94818;-85
2023/01/05 08:31:09;;;;;;;13.38;3.72;;;11.60;99.90;;;;;;5015419;28;93069;-84
2023/01/05 08:33:36;;;;;;;13.90;3.40;;;11.60;99.90;;;;;;5016585;28;93299;-85
2023/01/05 08:36:08;;;;;;;17.17;3.92;;;11.60;99.90;;;;;;5015996;28;94337;-85
2023/01/05 08:38:35;;;;;;;13.68;3.35;;;11.70;99.90;;;;;;4999286;28;92502;-84
2023/01/05 08:41:02;;;;;;;11.57;2.70;;;11.70;99.90;;;;;;4998281;28;92378;-85
2023/01/05 08:43:31;;;;;;;20.45;4.20;;;11.70;99.90;;;;;;5015435;28;93261;-85
2023/01/05 08:45:58;;;;;;;13.75;3.55;;;11.70;99.90;;;;;;5015195;28;95784;-85
2023/01/05 08:48:25;;;;;;;18.63;3.60;;;11.70;99.90;;;;;;5015025;28;92572;-85
2023/01/05 08:50:53;;;;;;;13.90;3.08;;;11.80;99.90;;;;;;5014444;28;100625;-85
2023/01/05 08:53:20;;;;;;;11.20;3.15;;;11.80;99.90;;;;;;5013145;28;97991;-85
2023/01/05 08:55:47;;;;;;;13.13;2.88;;;11.80;99.90;;;;;;5014856;28;95515;-85
2023/01/05 08:58:14;;;;;;;16.98;3.08;;;11.80;99.90;;;;;;5015018;28;92527;-85
2023/01/05 09:00:41;;;;;;;14.85;2.95;;;11.80;99.90;;;;;;4998032;28;92528;-85
2023/01/05 09:03:08;;;;;;;15.35;3.22;;;11.80;99.90;;;;;;5014421;28;95562;-85
2023/01/05 09:05:36;;;;;;;12.88;2.92;;;11.80;99.90;;;;;;5014557;28;95694;-85
2023/01/05 09:08:03;;;;;;;15.30;3.30;;;11.80;99.90;;;;;;4998657;28;92571;-85
2023/01/05 09:10:30;;;;;;;16.02;3.05;;;11.80;99.90;;;;;;5014950;28;91800;-85
2023/01/05 09:12:58;;;;;;;13.43;2.83;;;11.80;99.90;;;;;;5014642;28;95840;-85
2023/01/05 09:15:25;;;;;;;11.30;3.50;;;11.90;99.90;;;;;;5015762;28;93284;-85
2023/01/05 09:17:52;;;;;;;12.55;3.28;;;11.90;99.90;;;;;;5013756;28;95116;-85
2023/01/05 09:20:19;;;;;;;16.33;3.03;;;11.90;99.90;;;;;;5013821;28;92556;-85
2023/01/05 09:22:46;;;;;;;12.73;3.67;;;11.90;99.90;;;;;;5014800;28;93392;-84
2023/01/05 09:25:13;;;;;;;12.77;2.88;;;12.00;99.90;;;;;;5015147;28;92923;-85
2023/01/05 09:27:40;;;;;;;19.23;3.15;;;11.90;99.90;;;;;;5014248;28;92462;-85
2023/01/05 09:30:08;;;;;;;15.48;3.28;;;11.90;99.90;;;;;;5014457;28;92568;-85
2023/01/05 09:32:36;;;;;;;16.48;4.05;;;11.90;99.90;;;;;;5013873;28;95522;-84
2023/01/05 09:35:03;;;;;;;15.38;2.70;;;12.00;99.90;;;;;;4997768;28;95939;-85
2023/01/05 09:37:30;;;;;;;11.25;3.55;;;12.00;99.90;;;;;;5015557;28;92972;-84
2023/01/05 09:39:57;;;;;;;10.90;2.65;;;12.00;99.90;;;;;;5014311;28;92624;-84
2023/01/05 09:42:29;;;;;;;12.25;2.65;;;12.10;99.90;;;;;;5013827;28;95771;-84
2023/01/05 09:45:01;;;;;;;11.32;2.97;;;12.10;99.90;;;;;;5014768;28;95490;-84
2023/01/05 09:47:40;;;;;;;8.13;2.55;;;12.10;99.90;;;;;;5016037;28;93027;-84
2023/01/05 09:50:20;;;;;;;13.55;2.63;;;12.20;99.90;;;;;;4998031;28;92907;-84
2023/01/05 09:52:49;;;;;;;14.93;2.75;;;12.20;99.90;;;;;;5014275;28;93243;-84
2023/01/05 09:55:19;;;;;;;20.58;3.70;;;12.20;99.90;;;;;;5013978;28;95803;-84
2023/01/05 09:58:07;;;;;;;12.63;2.70;;;12.20;99.90;;;;;;5014590;28;92540;-84
2023/01/05 10:00:39;;;;;;;14.43;2.95;;;12.30;99.90;;;;;;5016100;28;91596;-84
2023/01/05 10:03:17;;;;;;;17.80;2.83;;;12.20;99.90;;;;;;5013933;28;95917;-84
2023/01/05 10:06:11;;;;;;;12.05;2.67;;;12.20;99.90;;;;;;5015891;28;93006;-84
2023/01/05 10:08:39;;;;;;;;;;;12.10;99.90;;;;;;5013269;28;94872;-84
2023/01/05 10:14:05;;;;;;;17.17;2.95;;;12.10;99.90;;;;;;5015022;28;92337;-84
2023/01/05 10:16:32;;;;;;;19.00;3.00;;;12.20;99.90;;;;;;5013695;28;93413;-84
2023/01/05 10:19:00;;;;;;;10.48;2.47;;;12.20;99.90;;;;;;5021049;28;92344;-85
2023/01/05 10:21:57;;;;;;;14.25;3.50;;;12.30;99.90;;;;;;5016817;28;92422;-84
2023/01/05 10:24:38;;;;;;;9.32;2.67;;;12.30;99.90;;;;;;5024280;28;93321;-84
2023/01/05 10:27:31;;;;;;;20.00;3.97;;;12.30;99.90;;;;;;5035445;28;91989;-84
2023/01/05 10:30:20;;;;;;;15.35;3.17;;;12.40;99.90;;;;;;5017368;28;92428;-84
2023/01/05 10:33:02;;;;;;;21.15;3.30;;;12.50;99.90;;;;;;5035178;28;92784;-84
2023/01/05 10:35:55;;;;;;;13.05;2.88;;;12.60;99.90;;;;;;5033716;28;95908;-84
2023/01/05 10:38:50;;;;;;;12.95;3.05;;;12.60;99.90;;;;;;5018902;28;95352;-84
2023/01/05 10:41:45;;;;;;;13.80;3.17;;;12.70;99.90;;;;;;5020244;28;93963;-84
2023/01/05 10:44:15;;;;;;;14.50;3.25;;;12.70;99.90;;;;;;5038697;28;92401;-84
2023/01/05 10:46:47;;;;;;;12.85;2.75;;;12.70;99.90;;;;;;5037924;28;94613;-84
2023/01/05 10:49:23;;;;;;;13.35;3.65;;;12.70;99.90;;;;;;5019943;28;95485;-84
2023/01/05 10:51:51;;;;;;;12.57;2.85;;;12.70;99.90;;;;;;5020448;28;92402;-84
2023/01/05 10:54:52;;;;;;;16.77;3.03;;;12.60;99.90;;;;;;5038780;28;91684;-84
2023/01/05 10:57:29;;;;;;;10.80;2.35;;;12.60;99.90;;;;;;5020452;28;93279;-84
2023/01/05 11:00:08;;;;;;;14.60;3.13;;;12.50;99.90;;;;;;5038331;28;93305;-84
2023/01/05 11:02:38;;;;;;;13.23;2.88;;;12.50;99.90;;;;;;5037129;28;94877;-84
2023/01/05 11:05:09;;;;;;;10.68;2.45;;;12.40;99.90;;;;;;5038322;28;92323;-84
2023/01/05 11:07:48;;;;;;;15.35;3.40;;;12.40;99.90;;;;;;5002927;28;93140;-84
2023/01/05 11:10:39;;;;;;;13.93;2.78;;;12.40;99.90;;;;;;5019870;28;92979;-84
2023/01/05 11:13:29;;;;;;;9.85;3.30;;;12.40;99.90;;;;;;5020409;28;92633;-84
2023/01/05 11:16:19;;;;;;;13.38;2.78;;;12.30;99.90;;;;;;5038604;28;92594;-84
2023/01/05 11:18:56;;;;;;;14.98;3.22;;;12.20;99.90;;;;;;5019576;28;93234;-83
2023/01/05 11:21:46;;;;;;;16.27;3.05;;;12.20;99.90;;;;;;5019806;28;95718;-84
2023/01/05 11:24:22;;;;;;;12.25;2.83;;;12.10;99.90;;;;;;5020554;28;92510;-84
2023/01/05 11:26:55;;;;;;;11.25;3.30;;;12.10;99.90;;;;;;5019991;28;92615;-84
2023/01/05 11:29:22;;;;;;;14.27;3.17;;;12.10;99.90;;;;;;5018301;28;98256;-84
2023/01/05 11:31:55;;;;;;;14.38;3.45;;;12.00;99.90;;;;;;5037298;28;103092;-84
2023/01/05 11:34:41;;;;;;;11.13;2.97;;;12.10;99.90;;;;;;5038326;28;92646;-84
2023/01/05 11:37:08;;;;;;;10.68;2.47;;;12.10;99.90;;;;;;5038250;28;92451;-84
2023/01/05 11:39:44;;;;;;;10.38;2.60;;;12.00;99.90;;;;;;5037661;28;93230;-84
2023/01/05 11:42:19;;;;;;;13.50;3.42;;;11.90;99.90;;;;;;5019645;28;92912;-84
2023/01/05 11:44:57;;;;;;;13.88;3.15;;;11.90;99.90;;;;;;5037640;28;92510;-84
2023/01/05 11:47:36;;;;;;;9.93;2.40;;;11.90;99.90;;;;;;5019669;28;92569;-84
2023/01/05 11:50:12;;;;;;;14.82;2.78;;;11.90;99.90;;;;;;5020107;28;93517;-84
2023/01/05 11:52:42;;;;;;;11.32;2.72;;;11.90;99.90;;;;;;5019382;28;93007;-84
2023/01/05 11:55:30;;;;;;;19.50;3.20;;;11.90;99.90;;;;;;5016898;28;94851;-84
2023/01/05 11:58:12;;;;;;;9.93;2.47;;;12.00;99.90;;;;;;5037680;28;92342;-84
2023/01/05 12:00:54;;;;;;;10.15;2.50;;;12.10;99.90;;;;;;5019230;28;93316;-84
2023/01/05 12:03:40;;;;;;;12.20;2.83;;;12.10;99.90;;;;;;5037557;28;93235;-84
2023/01/05 12:06:22;;;;;;;8.55;2.17;;;12.20;99.90;;;;;;5037440;28;92439;-83
2023/01/05 12:09:16;;;;;;;4.82;1.67;;;12.30;99.90;;;;;;5002312;28;92469;-83
2023/01/05 12:12:16;;;;;;;4.72;1.33;;;12.40;99.90;;;;;;5019082;28;94252;-84
2023/01/05 12:14:43;;;;;;;3.67;1.05;;;12.40;99.90;;;;;;5019244;28;93093;-84
2023/01/05 12:17:15;;;;;;;7.20;1.30;;;12.40;99.90;;;;;;5019547;28;92589;-83
2023/01/05 12:19:51;;;;;;;6.43;1.73;;;12.50;99.90;;;;;;5018388;28;92595;-84
2023/01/05 12:22:18;;;;;;;4.57;0.93;;;12.50;99.90;;;;;;5017955;28;96059;-83
2023/01/05 12:25:19;;;;;;;6.72;1.42;;;12.50;99.90;;;;;;5035100;28;97881;-83
2023/01/05 12:28:00;;;;;;;7.65;1.48;;;12.50;99.90;;;;;;5019002;28;92473;-83
2023/01/05 12:30:43;;;;;;;7.40;1.50;;;12.50;99.90;;;;;;5018892;28;92514;-83
2023/01/05 12:33:44;;;;;;;8.75;1.45;;;12.40;99.90;;;;;;5036765;28;93542;-83
2023/01/05 12:36:58;;;;;;;5.57;1.58;;;12.50;99.90;;;;;;5036871;28;92475;-83
2023/01/05 12:40:10;;;;;;;6.13;1.55;;;12.60;99.90;;;;;;5018645;28;92533;-83
2023/01/05 12:42:58;;;;;;;7.60;1.70;;;12.60;99.90;;;;;;4922169;28;91924;-83
2023/01/05 12:46:07;;;;;;;6.38;1.45;;;12.60;99.90;;;;;;5001652;28;95894;-83
2023/01/05 12:48:44;;;;;;;7.35;2.35;;;12.70;99.90;;;;;;5009429;28;93074;-83
2023/01/05 12:51:34;;;;;;;9.60;2.22;;;12.70;99.90;;;;;;5017471;28;94799;-83
2023/01/05 12:54:12;;;;;;;6.63;1.98;;;12.80;99.90;;;;;;5026069;28;93115;-83
2023/01/05 12:56:46;;;;;;;9.02;1.88;;;12.70;99.90;;;;;;5018386;28;94412;-83
2023/01/05 12:59:23;;;;;;;10.45;2.50;;;12.70;99.90;;;;;;5018593;28;96113;-83
2023/01/05 13:02:05;;;;;;;5.72;1.90;;;12.80;99.90;;;;;;5017260;28;92437;-83
2023/01/05 13:04:48;;;;;;;8.70;1.98;;;12.80;99.90;;;;;;5018561;28;92455;-83
2023/01/05 13:07:49;;;;;;;7.72;2.03;;;12.80;99.90;;;;;;5019348;28;93702;-84
2023/01/05 13:10:55;;;;;;;8.35;2.08;;;12.80;99.90;;;;;;4988003;28;95872;-84
2023/01/05 13:13:50;;;;;;;10.95;2.30;;;12.80;99.90;;;;;;4978096;28;92484;-83
2023/01/05 13:16:21;;;;;;;10.40;2.83;;;12.70;99.90;;;;;;5036606;28;92393;-83
2023/01/05 13:19:13;;;;;;;13.18;2.53;;;12.70;99.90;;;;;;5034320;28;95735;-83
2023/01/05 13:21:43;;;;;;;9.77;2.38;;;12.80;99.90;;;;;;5017416;28;98563;-83
2023/01/05 13:24:36;;;;;;;15.73;2.95;;;12.70;99.90;;;;;;5017752;28;92436;-83
2023/01/05 13:27:03;;;;;;;12.63;2.80;;;12.70;99.90;;;;;;5017662;28;92531;-83
2023/01/05 13:29:42;;;;;;;14.25;2.97;;;12.60;99.90;;;;;;5017483;28;96283;-83
2023/01/05 13:32:21;;;;;;;13.35;2.60;;;12.70;99.90;;;;;;5036215;28;92488;-83
2023/01/05 13:35:14;;;;;;;7.97;2.65;;;12.70;99.90;;;;;;5036059;28;92491;-83
2023/01/05 13:38:00;;;;;;;12.02;3.17;;;12.70;99.90;;;;;;4978224;28;91963;-83
2023/01/05 13:40:59;;;;;;;11.35;2.50;;;12.60;99.90;;;;;;5035854;28;93664;-84
2023/01/05 13:44:11;;;;;;;8.57;2.30;;;12.60;99.90;;;;;;5017829;28;93010;-83
2023/01/05 13:46:59;;;;;;;12.65;2.78;;;12.60;99.90;;;;;;5022171;28;95341;-84